Ripon, Wisconsin
Current Conditions -  °F | °C
As of 1:53 AM on Friday 19 Dec 2014 (Local Time) from KOSH Reporting Station
Clear Clear  
Wind Chill: -11°   Ceiling: Unl
Heat Index: -7°   Visibility: 10mi
Dew Point: -9°   Wind: 6mph
Humidity: 85%   Direction: 280°W
Pressure: 30.27"   Gusts: NA
Location:  43.85°N, 88.84°W
Report Text: KOSH 190753Z 28005KT 10SM CLR M07/M09 A3027 RMK AO2 SLP271 T10671089
Loading
Personal Weather Stations






























Interactive Weather Map New forecast layout! Learn more

10-Day Weather Forecast

Advertisements
Track Severe Weather on mobile